Time,TemperatureF,DewpointF,PressureIn,WindDirection,WindDirectionDegrees,WindSpeedMPH,WindSpeedGustMPH,Humidity,HourlyPrecipIn,Conditions,Clouds,dailyrainin,SoftwareType,DateUTC
2013-05-20 00:03:00,45.0,13.8,30.24,ESE,109,0.0,0.0,28,0.00,,SKC,0.00,VWS V14.01,2013-05-20 07:03:00,
2013-05-20 00:08:00,44.6,13.5,30.24,ESE,108,0.0,0.0,28,0.00,,SKC,0.00,VWS V14.01,2013-05-20 07:08:00,
2013-05-20 00:13:00,44.1,13.1,30.24,East,99,0.0,0.0,28,0.00,,SKC,0.00,VWS V14.01,2013-05-20 07:13:00,
2013-05-20 00:18:00,43.9,13.7,30.24,West,279,0.0,0.0,29,0.00,,SKC,0.00,VWS V14.01,2013-05-20 07:18:00,
2013-05-20 00:23:00,43.3,14.0,30.27,West,280,0.0,0.0,30,0.00,,SKC,0.00,VWS V14.01,2013-05-20 07:23:00,
2013-05-20 00:28:00,43.0,14.4,30.27,West,280,0.0,0.0,31,0.00,,SKC,0.00,VWS V14.01,2013-05-20 07:28:00,
2013-05-20 00:33:00,42.4,14.7,30.27,West,280,0.0,0.0,32,0.00,,SKC,0.00,VWS V14.01,2013-05-20 07:33:00,
2013-05-20 00:38:00,42.3,14.5,30.27,West,280,0.0,0.0,32,0.00,,SKC,0.00,VWS V14.01,2013-05-20 07:38:00,
2013-05-20 00:43:00,41.9,14.9,30.27,West,280,0.0,0.0,33,0.00,,SKC,0.00,VWS V14.01,2013-05-20 07:43:00,
2013-05-20 00:48:00,42.1,14.4,30.27,West,280,0.0,0.0,32,0.00,,SKC,0.00,VWS V14.01,2013-05-20 07:48:00,
2013-05-20 00:53:00,42.1,14.4,30.27,West,280,0.0,0.0,32,0.00,,SKC,0.00,VWS V14.01,2013-05-20 07:53:00,
2013-05-20 00:58:00,42.3,15.2,30.27,West,280,0.0,0.0,33,0.00,,SKC,0.00,VWS V14.01,2013-05-20 07:58:00,
2013-05-20 01:03:00,42.4,14.0,30.27,West,280,0.0,0.0,31,0.00,,SKC,0.00,VWS V14.01,2013-05-20 08:03:00,
2013-05-20 01:08:00,41.9,13.5,30.27,West,280,0.0,0.0,31,0.00,,SKC,0.00,VWS V14.01,2013-05-20 08:08:00,
2013-05-20 01:13:00,41.9,12.7,30.27,West,280,0.0,0.0,30,0.00,,SKC,0.00,VWS V14.01,2013-05-20 08:13:00,
2013-05-20 01:18:00,41.7,12.6,30.27,West,280,0.0,0.0,30,0.00,,SKC,0.00,VWS V14.01,2013-05-20 08:18:00,
2013-05-20 01:23:00,41.4,13.0,30.27,West,280,0.0,0.0,31,0.00,,SKC,0.00,VWS V14.01,2013-05-20 08:23:00,
2013-05-20 01:28:00,41.4,13.0,30.27,West,280,0.0,0.0,31,0.00,,SKC,0.00,VWS V14.01,2013-05-20 08:28:00,
2013-05-20 01:33:00,41.0,12.7,30.27,West,280,0.0,0.0,31,0.00,,SKC,0.00,VWS V14.01,2013-05-20 08:33:00,
2013-05-20 01:38:00,41.0,12.7,30.27,West,280,0.0,0.0,31,0.00,,SKC,0.00,VWS V14.01,2013-05-20 08:38:00,
2013-05-20 01:43:00,41.0,12.7,30.27,West,280,0.0,0.0,31,0.00,,SKC,0.00,VWS V14.01,2013-05-20 08:43:00,
2013-05-20 01:48:00,41.7,13.3,30.27,NW,308,2.7,5.4,31,0.00,,SKC,0.00,VWS V14.01,2013-05-20 08:48:00,
2013-05-20 01:53:00,42.1,12.9,30.24,NW,307,0.0,0.0,30,0.00,,SKC,0.00,VWS V14.01,2013-05-20 08:53:00,
2013-05-20 01:58:00,41.9,12.7,30.24,NW,307,0.0,0.0,30,0.00,,SKC,0.00,VWS V14.01,2013-05-20 08:58:00,
2013-05-20 02:03:00,41.5,12.4,30.24,NW,307,0.0,0.0,30,0.00,,SKC,0.00,VWS V14.01,2013-05-20 09:03:00,
2013-05-20 02:08:00,41.2,12.1,30.24,ESE,118,0.0,0.0,30,0.00,,SKC,0.00,VWS V14.01,2013-05-20 09:08:00,
2013-05-20 02:13:00,41.7,12.6,30.24,SE,141,2.7,3.6,30,0.00,,SKC,0.00,VWS V14.01,2013-05-20 09:13:00,
2013-05-20 02:18:00,41.9,12.7,30.24,SE,135,0.0,0.0,30,0.00,,SKC,0.00,VWS V14.01,2013-05-20 09:18:00,
2013-05-20 02:23:00,41.7,12.6,30.24,ESE,121,5.4,5.4,30,0.00,,SKC,0.00,VWS V14.01,2013-05-20 09:23:00,
2013-05-20 02:28:00,41.9,12.0,30.24,SE,126,2.7,3.6,29,0.00,,SKC,0.00,VWS V14.01,2013-05-20 09:28:00,
2013-05-20 02:33:00,42.3,12.3,30.24,SE,128,4.0,4.0,29,0.00,,SKC,0.00,VWS V14.01,2013-05-20 09:33:00,
2013-05-20 02:38:00,42.6,12.6,30.24,ESE,121,3.1,4.0,29,0.00,,SKC,0.00,VWS V14.01,2013-05-20 09:38:00,
2013-05-20 02:43:00,42.6,12.6,30.24,SE,126,3.1,3.1,29,0.00,,SKC,0.00,VWS V14.01,2013-05-20 09:43:00,
2013-05-20 02:48:00,42.4,12.4,30.24,ESE,123,0.0,0.0,29,0.00,,SKC,0.00,VWS V14.01,2013-05-20 09:48:00,
2013-05-20 02:53:00,42.3,12.3,30.24,ESE,123,0.0,0.0,29,0.00,,SKC,0.00,VWS V14.01,2013-05-20 09:53:00,
2013-05-20 02:58:00,41.9,12.0,30.24,ESE,122,2.7,3.1,29,0.00,,SKC,0.00,VWS V14.01,2013-05-20 09:58:00,
2013-05-20 03:03:00,41.9,12.0,30.24,ESE,119,3.1,3.1,29,0.00,,SKC,0.00,VWS V14.01,2013-05-20 10:03:00,
2013-05-20 03:08:00,41.5,11.7,30.24,ESE,117,0.0,0.0,29,0.00,,SKC,0.00,VWS V14.01,2013-05-20 10:08:00,
2013-05-20 03:13:00,41.2,11.4,30.24,ESE,116,0.0,0.0,29,0.00,,SKC,0.00,VWS V14.01,2013-05-20 10:13:00,
2013-05-20 03:18:00,40.6,11.6,30.24,ESE,113,2.7,3.6,30,0.00,,SKC,0.00,VWS V14.01,2013-05-20 10:18:00,
2013-05-20 03:23:00,41.0,11.2,30.24,ESE,116,3.1,3.1,29,0.00,,SKC,0.00,VWS V14.01,2013-05-20 10:23:00,
2013-05-20 03:28:00,41.4,11.5,30.24,ESE,111,3.1,4.0,29,0.00,,SKC,0.00,VWS V14.01,2013-05-20 10:28:00,
2013-05-20 03:33:00,41.5,11.7,30.24,ESE,119,2.7,4.9,29,0.00,,SKC,0.00,VWS V14.01,2013-05-20 10:33:00,
2013-05-20 03:38:00,41.5,11.7,30.21,ESE,120,3.6,4.0,29,0.00,,SKC,0.00,VWS V14.01,2013-05-20 10:38:00,
2013-05-20 03:43:00,41.7,11.8,30.21,ESE,117,2.7,2.7,29,0.00,,SKC,0.00,VWS V14.01,2013-05-20 10:43:00,
2013-05-20 03:48:00,41.7,11.8,30.21,ESE,117,2.7,3.1,29,0.00,,SKC,0.00,VWS V14.01,2013-05-20 10:48:00,
2013-05-20 03:53:00,41.2,11.4,30.24,ESE,117,0.0,0.0,29,0.00,,SKC,0.00,VWS V14.01,2013-05-20 10:53:00,
2013-05-20 03:58:00,41.0,11.2,30.24,ESE,117,0.0,0.0,29,0.00,,SKC,0.00,VWS V14.01,2013-05-20 10:58:00,
2013-05-20 04:03:00,40.6,11.6,30.24,ESE,117,4.0,4.0,30,0.00,,SKC,0.00,VWS V14.01,2013-05-20 11:03:00,
2013-05-20 04:08:00,40.6,11.6,30.24,ESE,117,3.1,3.1,30,0.00,,SKC,0.00,VWS V14.01,2013-05-20 11:08:00,
2013-05-20 04:13:00,40.8,11.8,30.24,ESE,120,2.2,3.1,30,0.00,,SKC,0.00,VWS V14.01,2013-05-20 11:13:00,
2013-05-20 04:18:00,40.8,11.8,30.24,ESE,120,0.0,0.0,30,0.00,,SKC,0.00,VWS V14.01,2013-05-20 11:18:00,
2013-05-20 04:23:00,40.5,11.5,30.24,ESE,120,2.7,2.7,30,0.00,,SKC,0.00,VWS V14.01,2013-05-20 11:23:00,
2013-05-20 04:28:00,40.3,11.3,30.24,ESE,120,3.6,3.6,30,0.00,,SKC,0.00,VWS V14.01,2013-05-20 11:28:00,
2013-05-20 04:33:00,40.5,11.5,30.24,ESE,121,3.1,3.6,30,0.00,,SKC,0.00,VWS V14.01,2013-05-20 11:33:00,
2013-05-20 04:38:00,40.6,11.6,30.24,ESE,119,2.7,3.1,30,0.00,,SKC,0.00,VWS V14.01,2013-05-20 11:38:00,
2013-05-20 04:43:00,41.2,11.4,30.24,ESE,116,7.2,7.2,29,0.00,,SKC,0.00,VWS V14.01,2013-05-20 11:43:00,
2013-05-20 04:48:00,41.2,11.4,30.24,ESE,119,4.0,6.3,29,0.00,,SKC,0.00,VWS V14.01,2013-05-20 11:48:00,
2013-05-20 04:53:00,40.8,11.8,30.24,ESE,122,4.0,5.8,30,0.00,,SKC,0.00,VWS V14.01,2013-05-20 11:53:00,
2013-05-20 04:58:00,40.6,11.6,30.24,ESE,119,4.0,5.8,30,0.00,,SKC,0.00,VWS V14.01,2013-05-20 11:58:00,
2013-05-20 05:03:00,40.6,11.6,30.24,ESE,119,3.6,5.8,30,0.00,,SKC,0.00,VWS V14.01,2013-05-20 12:03:00,
2013-05-20 05:08:00,40.6,11.6,30.24,ESE,122,4.9,5.8,30,0.00,,SKC,0.00,VWS V14.01,2013-05-20 12:08:00,
2013-05-20 05:13:00,40.5,11.5,30.24,ESE,108,4.0,4.0,30,0.00,,SKC,0.00,VWS V14.01,2013-05-20 12:13:00,
2013-05-20 05:18:00,40.3,11.3,30.24,ESE,115,4.0,4.9,30,0.00,,SKC,0.00,VWS V14.01,2013-05-20 12:18:00,
2013-05-20 05:23:00,40.3,11.3,30.24,ESE,116,4.0,4.0,30,0.00,,SKC,0.00,VWS V14.01,2013-05-20 12:23:00,
2013-05-20 05:28:00,40.3,11.3,30.24,ESE,119,3.6,4.0,30,0.00,,SKC,0.00,VWS V14.01,2013-05-20 12:28:00,
2013-05-20 05:33:00,40.1,11.2,30.24,ESE,119,4.0,4.0,30,0.00,,SKC,0.00,VWS V14.01,2013-05-20 12:33:00,
2013-05-20 05:38:00,39.9,11.0,30.24,ESE,119,3.6,3.6,30,0.00,,SKC,0.00,VWS V14.01,2013-05-20 12:38:00,
2013-05-20 05:43:00,39.7,10.9,30.24,ESE,115,3.6,3.6,30,0.00,,SKC,0.00,VWS V14.01,2013-05-20 12:43:00,
2013-05-20 05:48:00,39.6,10.7,30.24,ESE,115,0.0,0.0,30,0.00,,SKC,0.00,VWS V14.01,2013-05-20 12:48:00,
2013-05-20 05:53:00,39.0,11.0,30.24,ESE,115,0.0,0.0,31,0.00,,SKC,0.00,VWS V14.01,2013-05-20 12:53:00,
2013-05-20 05:58:00,38.7,10.6,30.24,ESE,115,0.0,2.7,31,0.00,,SKC,0.00,VWS V14.01,2013-05-20 12:58:00,
2013-05-20 06:03:00,38.7,11.4,30.24,ESE,122,3.1,3.6,32,0.00,,SKC,0.00,VWS V14.01,2013-05-20 13:03:00,
2013-05-20 06:08:00,39.4,11.3,30.24,SE,125,3.1,3.6,31,0.00,,SKC,0.00,VWS V14.01,2013-05-20 13:08:00,
2013-05-20 06:13:00,39.7,11.6,30.24,SE,125,0.0,0.0,31,0.00,,SKC,0.00,VWS V14.01,2013-05-20 13:13:00,
2013-05-20 06:18:00,40.3,12.1,30.24,SE,128,2.7,3.6,31,0.00,,SKC,0.00,VWS V14.01,2013-05-20 13:18:00,
2013-05-20 06:23:00,41.2,12.1,30.24,ESE,123,4.9,4.9,30,0.00,,SKC,0.00,VWS V14.01,2013-05-20 13:23:00,
2013-05-20 06:27:00,41.9,12.7,30.24,SE,133,3.6,5.4,30,0.00,,SKC,0.00,VWS V14.01,2013-05-20 13:27:00,
2013-05-20 06:32:00,42.6,13.4,30.24,SE,137,3.6,3.6,30,0.00,,SKC,0.00,VWS V14.01,2013-05-20 13:32:00,
2013-05-20 06:37:00,43.3,13.2,30.24,SE,127,4.0,4.0,29,0.00,,SKC,0.00,VWS V14.01,2013-05-20 13:37:00,
2013-05-20 06:42:00,44.1,13.9,30.24,SE,128,0.0,0.0,29,0.00,,SKC,0.00,VWS V14.01,2013-05-20 13:42:00,
2013-05-20 06:47:00,45.5,14.3,30.24,ESE,120,3.1,4.0,28,0.00,,SKC,0.00,VWS V14.01,2013-05-20 13:47:00,
2013-05-20 06:52:00,46.2,14.9,30.24,ESE,119,3.6,4.9,28,0.00,,SKC,0.00,VWS V14.01,2013-05-20 13:52:00,
2013-05-20 06:57:00,47.3,15.0,30.24,ESE,121,2.7,2.7,27,0.00,,SKC,0.00,VWS V14.01,2013-05-20 13:57:00,
2013-05-20 07:02:00,48.7,16.3,30.24,ESE,121,3.1,3.1,27,0.00,,SKC,0.00,VWS V14.01,2013-05-20 14:02:00,
2013-05-20 07:07:00,49.6,17.0,30.24,ESE,119,4.0,4.0,27,0.00,,SKC,0.00,VWS V14.01,2013-05-20 14:07:00,
2013-05-20 07:12:00,50.2,16.6,30.24,SE,126,0.0,0.0,26,0.00,,SKC,0.00,VWS V14.01,2013-05-20 14:12:00,
2013-05-20 07:17:00,51.3,17.6,30.24,SE,126,0.0,0.0,26,0.00,,SKC,0.00,VWS V14.01,2013-05-20 14:17:00,
2013-05-20 07:22:00,53.4,19.4,30.24,SE,126,0.0,0.0,26,0.00,,SKC,0.00,VWS V14.01,2013-05-20 14:22:00,
2013-05-20 07:27:00,55.8,17.5,30.24,SE,126,0.0,0.0,22,0.00,,SKC,0.00,VWS V14.01,2013-05-20 14:27:00,
2013-05-20 07:32:00,56.7,18.3,30.24,SE,126,0.0,0.0,22,0.00,,SKC,0.00,VWS V14.01,2013-05-20 14:32:00,
2013-05-20 07:37:00,56.7,18.3,30.24,SE,126,0.0,0.0,22,0.00,,SKC,0.00,VWS V14.01,2013-05-20 14:37:00,
2013-05-20 07:42:00,55.9,20.6,30.24,SE,132,0.0,0.0,25,0.00,,SKC,0.00,VWS V14.01,2013-05-20 14:42:00,
2013-05-20 07:47:00,55.9,20.6,30.24,SE,132,0.0,0.0,25,0.00,,SKC,0.00,VWS V14.01,2013-05-20 14:47:00,
2013-05-20 07:52:00,56.3,18.0,30.24,SE,132,0.0,0.0,22,0.00,,SKC,0.00,VWS V14.01,2013-05-20 14:52:00,
2013-05-20 07:57:00,56.1,20.8,30.24,WNW,296,0.0,0.0,25,0.00,,SKC,0.00,VWS V14.01,2013-05-20 14:57:00,
2013-05-20 08:02:00,55.9,20.6,30.24,NW,308,0.0,0.0,25,0.00,,SKC,0.00,VWS V14.01,2013-05-20 15:02:00,
2013-05-20 08:07:00,56.3,21.0,30.24,NW,308,0.0,0.0,25,0.00,,SKC,0.00,VWS V14.01,2013-05-20 15:07:00,
2013-05-20 08:12:00,57.0,21.6,30.24,NW,305,4.9,5.4,25,0.00,,SKC,0.00,VWS V14.01,2013-05-20 15:12:00,
2013-05-20 08:17:00,57.2,21.7,30.24,NW,312,0.0,0.0,25,0.00,,SKC,0.00,VWS V14.01,2013-05-20 15:17:00,
2013-05-20 08:22:00,57.0,21.6,30.24,NW,310,0.0,0.0,25,0.00,,SKC,0.00,VWS V14.01,2013-05-20 15:22:00,
2013-05-20 08:27:00,57.4,20.9,30.24,NW,309,0.0,0.0,24,0.00,,SKC,0.00,VWS V14.01,2013-05-20 15:27:00,
2013-05-20 08:32:00,58.6,22.0,30.24,NW,307,0.0,0.0,24,0.00,,SKC,0.00,VWS V14.01,2013-05-20 15:32:00,
2013-05-20 08:37:00,59.7,22.9,30.24,NW,305,3.1,3.6,24,0.00,,SKC,0.00,VWS V14.01,2013-05-20 15:37:00,
2013-05-20 08:42:00,60.1,23.2,30.24,West,277,3.1,3.1,24,0.00,,SKC,0.00,VWS V14.01,2013-05-20 15:42:00,
2013-05-20 08:47:00,59.5,20.7,30.24,WNW,283,4.9,5.4,22,0.00,,SKC,0.00,VWS V14.01,2013-05-20 15:47:00,
2013-05-20 08:52:00,60.3,23.4,30.24,WNW,284,0.0,0.0,24,0.00,,SKC,0.00,VWS V14.01,2013-05-20 15:52:00,
2013-05-20 08:57:00,61.0,20.8,30.24,WNW,303,2.7,4.0,21,0.00,,SKC,0.00,VWS V14.01,2013-05-20 15:57:00,
2013-05-20 09:02:00,61.2,20.9,30.24,WNW,289,3.1,3.1,21,0.00,,SKC,0.00,VWS V14.01,2013-05-20 16:02:00,
2013-05-20 09:07:00,60.8,20.6,30.24,WNW,293,2.7,4.0,21,0.00,,SKC,0.00,VWS V14.01,2013-05-20 16:07:00,
2013-05-20 09:12:00,61.3,21.1,30.24,NW,306,2.2,3.1,21,0.00,,SKC,0.00,VWS V14.01,2013-05-20 16:12:00,
2013-05-20 09:17:00,61.9,21.5,30.24,NW,309,3.6,3.6,21,0.00,,SKC,0.00,VWS V14.01,2013-05-20 16:17:00,
2013-05-20 09:22:00,62.1,21.7,30.24,WNW,297,3.1,3.6,21,0.00,,SKC,0.00,VWS V14.01,2013-05-20 16:22:00,
2013-05-20 09:27:00,62.1,19.3,30.24,NNW,329,4.0,6.3,19,0.00,,SKC,0.00,VWS V14.01,2013-05-20 16:27:00,
2013-05-20 09:32:00,62.1,21.7,30.24,WNW,284,3.6,3.6,21,0.00,,SKC,0.00,VWS V14.01,2013-05-20 16:32:00,
2013-05-20 09:37:00,62.6,18.5,30.24,WNW,301,4.0,4.9,18,0.00,,SKC,0.00,VWS V14.01,2013-05-20 16:37:00,
2013-05-20 09:42:00,62.6,22.1,30.24,WNW,291,0.0,0.0,21,0.00,,SKC,0.00,VWS V14.01,2013-05-20 16:42:00,
2013-05-20 09:47:00,63.1,22.6,30.24,NW,323,2.7,5.4,21,0.00,,SKC,0.00,VWS V14.01,2013-05-20 16:47:00,
2013-05-20 09:52:00,63.3,19.1,30.24,NW,314,5.4,6.3,18,0.00,,SKC,0.00,VWS V14.01,2013-05-20 16:52:00,
2013-05-20 09:57:00,63.5,19.3,30.24,West,281,3.6,4.0,18,0.00,,SKC,0.00,VWS V14.01,2013-05-20 16:57:00,
2013-05-20 10:02:00,63.9,19.6,30.24,WNW,302,2.7,3.6,18,0.00,,SKC,0.00,VWS V14.01,2013-05-20 17:02:00,
2013-05-20 10:07:00,64.4,20.0,30.21,NNW,329,0.0,0.0,18,0.00,,SKC,0.00,VWS V14.01,2013-05-20 17:07:00,
2013-05-20 10:12:00,64.6,20.1,30.21,NNW,344,0.0,0.0,18,0.00,,SKC,0.00,VWS V14.01,2013-05-20 17:12:00,
2013-05-20 10:17:00,65.1,23.1,30.21,West,272,4.0,5.4,20,0.00,,SKC,0.00,VWS V14.01,2013-05-20 17:17:00,
2013-05-20 10:22:00,64.9,20.4,30.21,West,273,4.0,4.0,18,0.00,,SKC,0.00,VWS V14.01,2013-05-20 17:22:00,
2013-05-20 10:27:00,64.4,20.0,30.21,SSW,200,3.6,3.6,18,0.00,,SKC,0.00,VWS V14.01,2013-05-20 17:27:00,
2013-05-20 10:32:00,64.8,20.3,30.21,West,270,5.8,5.8,18,0.00,,SKC,0.00,VWS V14.01,2013-05-20 17:32:00,
2013-05-20 10:37:00,64.2,19.9,30.21,WNW,298,4.9,8.1,18,0.00,,SKC,0.00,VWS V14.01,2013-05-20 17:37:00,
2013-05-20 10:42:00,64.4,20.0,30.21,West,280,5.4,5.4,18,0.00,,SKC,0.00,VWS V14.01,2013-05-20 17:42:00,
2013-05-20 10:47:00,65.5,20.9,30.21,West,277,0.0,0.0,18,0.00,,SKC,0.00,VWS V14.01,2013-05-20 17:47:00,
2013-05-20 10:52:00,65.7,21.0,30.21,WNW,298,4.9,5.8,18,0.00,,SKC,0.00,VWS V14.01,2013-05-20 17:52:00,
2013-05-20 10:57:00,66.0,21.3,30.21,SW,236,3.6,3.6,18,0.00,,SKC,0.00,VWS V14.01,2013-05-20 17:57:00,
2013-05-20 11:02:00,66.2,20.1,30.21,WSW,256,3.6,3.6,17,0.00,,SKC,0.00,VWS V14.01,2013-05-20 18:02:00,
2013-05-20 11:07:00,66.6,24.3,30.21,WNW,293,4.0,4.9,20,0.00,,SKC,0.00,VWS V14.01,2013-05-20 18:07:00,
2013-05-20 11:12:00,66.9,20.7,30.21,WNW,301,4.5,4.5,17,0.00,,SKC,0.00,VWS V14.01,2013-05-20 18:12:00,
2013-05-20 11:17:00,67.1,20.9,30.21,West,273,4.9,6.3,17,0.00,,SKC,0.00,VWS V14.01,2013-05-20 18:17:00,
2013-05-20 11:22:00,66.7,20.6,30.21,WNW,290,5.4,5.8,17,0.00,,SKC,0.00,VWS V14.01,2013-05-20 18:22:00,
2013-05-20 11:27:00,66.7,20.6,30.21,West,260,5.4,5.8,17,0.00,,SKC,0.00,VWS V14.01,2013-05-20 18:27:00,
2013-05-20 11:32:00,67.3,24.9,30.21,WNW,292,4.9,6.3,20,0.00,,SKC,0.00,VWS V14.01,2013-05-20 18:32:00,
2013-05-20 11:37:00,67.5,21.2,30.21,WNW,301,2.7,5.4,17,0.00,,SKC,0.00,VWS V14.01,2013-05-20 18:37:00,
2013-05-20 11:42:00,67.1,20.9,30.21,West,267,6.3,11.0,17,0.00,,SKC,0.00,VWS V14.01,2013-05-20 18:42:00,
2013-05-20 11:47:00,66.9,20.7,30.21,WNW,300,6.3,8.7,17,0.00,,SKC,0.00,VWS V14.01,2013-05-20 18:47:00,
2013-05-20 11:52:00,67.1,20.9,30.21,WNW,285,0.0,0.0,17,0.00,,SKC,0.00,VWS V14.01,2013-05-20 18:52:00,
2013-05-20 11:57:00,68.0,21.6,30.21,NW,305,8.3,8.3,17,0.00,,SKC,0.00,VWS V14.01,2013-05-20 18:57:00,
2013-05-20 12:02:00,68.5,22.0,30.21,West,281,5.4,5.4,17,0.00,,SKC,0.00,VWS V14.01,2013-05-20 19:02:00,
2013-05-20 12:07:00,68.2,21.7,30.21,WNW,298,10.1,10.1,17,0.00,,SKC,0.00,VWS V14.01,2013-05-20 19:07:00,
2013-05-20 12:12:00,68.4,21.9,30.21,WNW,297,5.4,5.4,17,0.00,,SKC,0.00,VWS V14.01,2013-05-20 19:12:00,
2013-05-20 12:17:00,69.1,22.5,30.21,North,0,0.0,0.0,17,0.00,,SKC,0.00,VWS V14.01,2013-05-20 19:17:00,
2013-05-20 12:22:00,69.1,22.5,30.21,WNW,297,7.6,7.6,17,0.00,,SKC,0.00,VWS V14.01,2013-05-20 19:22:00,
2013-05-20 12:27:00,69.1,22.5,30.21,NNW,345,0.0,0.0,17,0.00,,SKC,0.00,VWS V14.01,2013-05-20 19:27:00,
2013-05-20 12:32:00,70.0,23.2,30.21,NW,314,6.3,6.3,17,0.00,,SKC,0.00,VWS V14.01,2013-05-20 19:32:00,
2013-05-20 12:37:00,70.2,23.4,30.21,West,277,4.9,4.9,17,0.00,,SKC,0.00,VWS V14.01,2013-05-20 19:37:00,
2013-05-20 12:42:00,70.3,23.5,30.21,WNW,295,4.0,4.0,17,0.00,,SKC,0.00,VWS V14.01,2013-05-20 19:42:00,
2013-05-20 12:47:00,70.3,23.5,30.21,WNW,297,3.6,5.8,17,0.00,,SKC,0.00,VWS V14.01,2013-05-20 19:47:00,
2013-05-20 12:52:00,70.5,23.6,30.18,North,0,5.8,5.8,17,0.00,,SKC,0.00,VWS V14.01,2013-05-20 19:52:00,
2013-05-20 12:57:00,70.7,23.8,30.18,NNW,329,2.2,2.2,17,0.00,,SKC,0.00,VWS V14.01,2013-05-20 19:57:00,
2013-05-20 13:02:00,70.0,23.2,30.18,WNW,293,3.1,5.4,17,0.00,,SKC,0.00,VWS V14.01,2013-05-20 20:02:00,
2013-05-20 13:07:00,70.5,23.6,30.21,NW,315,5.4,6.3,17,0.00,,SKC,0.00,VWS V14.01,2013-05-20 20:07:00,
2013-05-20 13:12:00,70.9,23.9,30.21,SW,224,0.0,0.0,17,0.00,,SKC,0.00,VWS V14.01,2013-05-20 20:12:00,
2013-05-20 13:17:00,71.2,24.2,30.21,West,262,6.3,6.3,17,0.00,,SKC,0.00,VWS V14.01,2013-05-20 20:17:00,
2013-05-20 13:22:00,71.6,23.1,30.18,WNW,289,3.1,4.9,16,0.00,,SKC,0.00,VWS V14.01,2013-05-20 20:22:00,
2013-05-20 13:27:00,72.1,23.5,30.18,NNW,330,0.0,0.0,16,0.00,,SKC,0.00,VWS V14.01,2013-05-20 20:27:00,
2013-05-20 13:32:00,73.0,24.2,30.18,NW,315,4.0,4.0,16,0.00,,SKC,0.00,VWS V14.01,2013-05-20 20:32:00,
2013-05-20 13:37:00,72.9,24.1,30.18,West,275,6.3,6.3,16,0.00,,SKC,0.00,VWS V14.01,2013-05-20 20:37:00,
2013-05-20 13:42:00,73.2,24.4,30.18,NNE,26,3.1,3.6,16,0.00,,SKC,0.00,VWS V14.01,2013-05-20 20:42:00,
2013-05-20 13:47:00,73.6,24.7,30.18,West,266,4.0,5.4,16,0.00,,SKC,0.00,VWS V14.01,2013-05-20 20:47:00,
2013-05-20 13:52:00,73.8,24.8,30.18,NW,313,10.1,10.1,16,0.00,,SKC,0.00,VWS V14.01,2013-05-20 20:52:00,
2013-05-20 13:57:00,73.6,24.7,30.18,WNW,288,6.3,8.1,16,0.00,,SKC,0.00,VWS V14.01,2013-05-20 20:57:00,
2013-05-20 14:02:00,73.6,24.7,30.18,NW,310,3.6,4.0,16,0.00,,SKC,0.00,VWS V14.01,2013-05-20 21:02:00,
2013-05-20 14:07:00,73.8,24.8,30.18,WNW,289,3.6,8.1,16,0.00,,SKC,0.00,VWS V14.01,2013-05-20 21:07:00,
2013-05-20 14:12:00,73.9,25.0,30.18,NW,316,5.8,6.3,16,0.00,,SKC,0.00,VWS V14.01,2013-05-20 21:12:00,
2013-05-20 14:17:00,74.3,25.2,30.18,West,269,4.0,4.0,16,0.00,,SKC,0.00,VWS V14.01,2013-05-20 21:17:00,
2013-05-20 14:22:00,74.1,25.1,30.18,NW,312,9.2,11.0,16,0.00,,SKC,0.00,VWS V14.01,2013-05-20 21:22:00,
2013-05-20 14:27:00,74.8,25.7,30.18,NNW,328,8.3,8.3,16,0.00,,SKC,0.00,VWS V14.01,2013-05-20 21:27:00,
2013-05-20 14:32:00,75.7,24.9,30.18,North,353,5.8,5.8,15,0.00,,SKC,0.00,VWS V14.01,2013-05-20 21:32:00,
2013-05-20 14:37:00,75.9,25.0,30.18,West,270,8.1,8.1,15,0.00,,SKC,0.00,VWS V14.01,2013-05-20 21:37:00,
2013-05-20 14:42:00,75.7,24.9,30.18,West,268,5.8,8.1,15,0.00,,SKC,0.00,VWS V14.01,2013-05-20 21:42:00,
2013-05-20 14:47:00,75.9,25.0,30.18,West,272,3.6,3.6,15,0.00,,SKC,0.00,VWS V14.01,2013-05-20 21:47:00,
2013-05-20 14:52:00,75.7,24.9,30.18,West,270,7.6,7.6,15,0.00,,SKC,0.00,VWS V14.01,2013-05-20 21:52:00,
2013-05-20 14:57:00,76.1,25.1,30.18,WNW,286,6.3,6.3,15,0.00,,SKC,0.00,VWS V14.01,2013-05-20 21:57:00,
2013-05-20 15:02:00,76.5,25.4,30.18,NW,307,7.2,7.2,15,0.00,,SKC,0.00,VWS V14.01,2013-05-20 22:02:00,
2013-05-20 15:07:00,76.1,25.1,30.18,WNW,283,8.1,8.1,15,0.00,,SKC,0.00,VWS V14.01,2013-05-20 22:07:00,
2013-05-20 15:12:00,75.9,25.0,30.18,North,353,6.3,9.6,15,0.00,,SKC,0.00,VWS V14.01,2013-05-20 22:12:00,
2013-05-20 15:17:00,76.1,25.1,30.18,West,265,3.1,3.1,15,0.00,,SKC,0.00,VWS V14.01,2013-05-20 22:17:00,
2013-05-20 15:22:00,76.3,25.3,30.18,NE,39,2.7,3.6,15,0.00,,SKC,0.00,VWS V14.01,2013-05-20 22:22:00,
2013-05-20 15:27:00,76.3,25.3,30.18,NW,312,5.8,8.1,15,0.00,,SKC,0.00,VWS V14.01,2013-05-20 22:27:00,
2013-05-20 15:32:00,76.6,25.6,30.18,West,271,3.6,7.6,15,0.00,,SKC,0.00,VWS V14.01,2013-05-20 22:32:00,
2013-05-20 15:37:00,76.5,25.4,30.18,NNW,335,2.2,2.2,15,0.00,,SKC,0.00,VWS V14.01,2013-05-20 22:37:00,
2013-05-20 15:42:00,76.8,25.7,30.18,WNW,297,2.7,4.0,15,0.00,,SKC,0.00,VWS V14.01,2013-05-20 22:42:00,
2013-05-20 15:47:00,77.0,25.9,30.18,NNW,334,3.6,4.9,15,0.00,,SKC,0.00,VWS V14.01,2013-05-20 22:47:00,
2013-05-20 15:52:00,77.7,26.4,30.18,West,275,4.5,4.5,15,0.00,,SKC,0.00,VWS V14.01,2013-05-20 22:52:00,
2013-05-20 15:57:00,77.4,26.1,30.18,NNW,330,4.9,5.8,15,0.00,,SKC,0.00,VWS V14.01,2013-05-20 22:57:00,
2013-05-20 16:02:00,77.7,26.4,30.18,WNW,292,5.8,5.8,15,0.00,,SKC,0.00,VWS V14.01,2013-05-20 23:02:00,
2013-05-20 16:07:00,77.9,26.6,30.15,WNW,286,4.9,4.9,15,0.00,,SKC,0.00,VWS V14.01,2013-05-20 23:07:00,
2013-05-20 16:12:00,77.7,26.4,30.15,NW,312,5.4,5.4,15,0.00,,SKC,0.00,VWS V14.01,2013-05-20 23:12:00,
2013-05-20 16:17:00,78.3,26.9,30.15,West,264,5.4,5.4,15,0.00,,SKC,0.00,VWS V14.01,2013-05-20 23:17:00,
2013-05-20 16:22:00,77.7,26.4,30.15,West,275,0.0,2.7,15,0.00,,SKC,0.00,VWS V14.01,2013-05-20 23:22:00,
2013-05-20 16:27:00,77.7,26.4,30.15,West,277,2.2,2.7,15,0.00,,SKC,0.00,VWS V14.01,2013-05-20 23:27:00,
2013-05-20 16:32:00,77.9,26.6,30.15,NW,310,4.0,4.9,15,0.00,,SKC,0.00,VWS V14.01,2013-05-20 23:32:00,
2013-05-20 16:37:00,77.9,26.6,30.15,West,281,2.7,4.0,15,0.00,,SKC,0.00,VWS V14.01,2013-05-20 23:37:00,
2013-05-20 16:42:00,77.7,26.4,30.15,NW,319,5.4,5.4,15,0.00,,SKC,0.00,VWS V14.01,2013-05-20 23:42:00,
2013-05-20 16:47:00,77.5,26.3,30.15,WSW,244,3.6,6.3,15,0.00,,SKC,0.00,VWS V14.01,2013-05-20 23:47:00,
2013-05-20 16:52:00,77.7,26.4,30.12,WNW,285,2.7,5.8,15,0.00,,SKC,0.00,VWS V14.01,2013-05-20 23:52:00,
2013-05-20 16:57:00,77.7,26.4,30.12,West,272,2.7,5.8,15,0.00,,SKC,0.00,VWS V14.01,2013-05-20 23:57:00,
2013-05-20 17:02:00,78.1,26.7,30.12,WNW,284,3.1,3.1,15,0.00,,SKC,0.00,VWS V14.01,2013-05-21 00:02:00,
2013-05-20 17:07:00,78.1,26.7,30.12,NE,48,2.2,2.7,15,0.00,,SKC,0.00,VWS V14.01,2013-05-21 00:07:00,
2013-05-20 17:12:00,78.4,27.0,30.12,WNW,302,4.0,4.0,15,0.00,,SKC,0.00,VWS V14.01,2013-05-21 00:12:00,
2013-05-20 17:17:00,78.6,27.1,30.12,North,350,6.3,6.3,15,0.00,,SKC,0.00,VWS V14.01,2013-05-21 00:17:00,
2013-05-20 17:22:00,78.1,26.7,30.12,West,275,5.8,5.8,15,0.00,,SKC,0.00,VWS V14.01,2013-05-21 00:22:00,
2013-05-20 17:27:00,77.5,26.3,30.12,WNW,295,2.7,2.7,15,0.00,,SKC,0.00,VWS V14.01,2013-05-21 00:27:00,
2013-05-20 17:32:00,77.0,25.9,30.12,WSW,249,3.1,4.0,15,0.00,,SKC,0.00,VWS V14.01,2013-05-21 00:32:00,
2013-05-20 17:37:00,76.1,25.1,30.12,West,267,2.7,3.6,15,0.00,,SKC,0.00,VWS V14.01,2013-05-21 00:37:00,
2013-05-20 17:42:00,75.0,25.8,30.12,West,271,4.9,5.8,16,0.00,,SKC,0.00,VWS V14.01,2013-05-21 00:42:00,
2013-05-20 17:47:00,74.3,25.2,30.12,NNW,344,2.7,4.9,16,0.00,,SKC,0.00,VWS V14.01,2013-05-21 00:47:00,
2013-05-20 17:52:00,73.8,24.8,30.12,NW,316,3.1,5.8,16,0.00,,SKC,0.00,VWS V14.01,2013-05-21 00:52:00,
2013-05-20 17:57:00,73.6,24.7,30.12,NNW,330,4.9,4.9,16,0.00,,SKC,0.00,VWS V14.01,2013-05-21 00:57:00,
2013-05-20 18:02:00,73.2,24.4,30.12,NW,305,4.9,4.9,16,0.00,,SKC,0.00,VWS V14.01,2013-05-21 01:02:00,
2013-05-20 18:07:00,73.0,24.2,30.12,WNW,303,2.7,5.8,16,0.00,,SKC,0.00,VWS V14.01,2013-05-21 01:07:00,
2013-05-20 18:12:00,72.9,24.1,30.12,WNW,301,5.8,5.8,16,0.00,,SKC,0.00,VWS V14.01,2013-05-21 01:12:00,
2013-05-20 18:17:00,72.9,24.1,30.12,WNW,290,4.0,5.4,16,0.00,,SKC,0.00,VWS V14.01,2013-05-21 01:17:00,
2013-05-20 18:22:00,72.9,24.1,30.12,WNW,297,3.1,5.4,16,0.00,,SKC,0.00,VWS V14.01,2013-05-21 01:22:00,
2013-05-20 18:27:00,72.5,23.8,30.12,West,280,0.0,3.1,16,0.00,,SKC,0.00,VWS V14.01,2013-05-21 01:27:00,
2013-05-20 18:32:00,72.1,23.5,30.12,West,280,0.0,0.0,16,0.00,,SKC,0.00,VWS V14.01,2013-05-21 01:32:00,
2013-05-20 18:37:00,71.8,23.2,30.12,West,275,0.0,2.7,16,0.00,,SKC,0.00,VWS V14.01,2013-05-21 01:37:00,
2013-05-20 18:42:00,71.6,23.1,30.12,WNW,298,3.6,3.6,16,0.00,,SKC,0.00,VWS V14.01,2013-05-21 01:42:00,
2013-05-20 18:47:00,71.4,24.4,30.12,WNW,283,0.0,3.6,17,0.00,,SKC,0.00,VWS V14.01,2013-05-21 01:47:00,
2013-05-20 18:52:00,71.1,24.1,30.12,WNW,283,0.0,0.0,17,0.00,,SKC,0.00,VWS V14.01,2013-05-21 01:52:00,
2013-05-20 18:57:00,70.9,23.9,30.12,WNW,283,0.0,0.0,17,0.00,,SKC,0.00,VWS V14.01,2013-05-21 01:57:00,
2013-05-20 19:02:00,70.7,23.8,30.12,WNW,283,0.0,0.0,17,0.00,,SKC,0.00,VWS V14.01,2013-05-21 02:02:00,
2013-05-20 19:07:00,70.5,23.6,30.12,WNW,283,0.0,0.0,17,0.00,,SKC,0.00,VWS V14.01,2013-05-21 02:07:00,
2013-05-20 19:12:00,70.0,23.2,30.12,WNW,283,0.0,0.0,17,0.00,,SKC,0.00,VWS V14.01,2013-05-21 02:12:00,
2013-05-20 19:17:00,69.4,22.8,30.12,WNW,283,0.0,0.0,17,0.00,,SKC,0.00,VWS V14.01,2013-05-21 02:17:00,
2013-05-20 19:22:00,68.9,22.3,30.12,SSW,208,0.0,0.0,17,0.00,,SKC,0.00,VWS V14.01,2013-05-21 02:22:00,
2013-05-20 19:27:00,68.2,21.7,30.12,SSW,206,0.0,0.0,17,0.00,,SKC,0.00,VWS V14.01,2013-05-21 02:27:00,
2013-05-20 19:32:00,67.3,21.0,30.12,SSW,206,0.0,0.0,17,0.00,,SKC,0.00,VWS V14.01,2013-05-21 02:32:00,
2013-05-20 19:37:00,66.7,20.6,30.12,SSW,206,0.0,0.0,17,0.00,,SKC,0.00,VWS V14.01,2013-05-21 02:37:00,
2013-05-20 19:42:00,66.2,20.1,30.12,SSW,206,0.0,0.0,17,0.00,,SKC,0.00,VWS V14.01,2013-05-21 02:42:00,
2013-05-20 19:47:00,65.8,21.2,30.12,SSW,206,3.1,3.1,18,0.00,,SKC,0.00,VWS V14.01,2013-05-21 02:47:00,
2013-05-20 19:52:00,65.1,20.6,30.12,SSW,197,0.0,0.0,18,0.00,,SKC,0.00,VWS V14.01,2013-05-21 02:52:00,
2013-05-20 19:57:00,64.6,20.1,30.12,SSW,197,0.0,0.0,18,0.00,,SKC,0.00,VWS V14.01,2013-05-21 02:57:00,
2013-05-20 20:00:00,64.2,19.9,30.12,SE,141,5.4,8.3,18,0.00,,SKC,0.00,VWS V14.01,2013-05-21 03:00:00,
2013-05-20 20:01:00,64.4,20.0,30.12,SE,139,5.4,5.8,18,0.00,,SKC,0.00,VWS V14.01,2013-05-21 03:01:00,
2013-05-20 20:02:00,63.9,19.6,30.12,South,175,0.0,0.0,18,0.00,,SKC,0.00,VWS V14.01,2013-05-21 03:02:00,
2013-05-20 20:03:00,64.8,22.8,30.12,SSE,153,5.8,10.1,20,0.00,,SKC,0.00,VWS V14.01,2013-05-21 03:03:00,
2013-05-20 20:04:00,64.8,22.8,30.12,SE,140,8.1,8.1,20,0.00,,SKC,0.00,VWS V14.01,2013-05-21 03:04:00,
2013-05-20 20:05:00,64.8,20.3,30.12,South,169,5.8,7.6,18,0.00,,SKC,0.00,VWS V14.01,2013-05-21 03:05:00,
2013-05-20 20:07:00,63.9,19.6,30.12,ESE,122,2.7,2.7,18,0.00,,SKC,0.00,VWS V14.01,2013-05-21 03:07:00,
2013-05-20 20:12:00,64.2,19.9,30.12,ESE,119,2.7,4.0,18,0.00,,SKC,0.00,VWS V14.01,2013-05-21 03:12:00,
2013-05-20 20:17:00,64.8,20.3,30.12,ESE,109,0.0,0.0,18,0.00,,SKC,0.00,VWS V14.01,2013-05-21 03:17:00,
2013-05-20 20:22:00,65.1,20.6,30.12,East,93,3.6,4.5,18,0.00,,SKC,0.00,VWS V14.01,2013-05-21 03:22:00,
2013-05-20 20:27:00,65.1,20.6,30.12,East,98,2.7,2.7,18,0.00,,SKC,0.00,VWS V14.01,2013-05-21 03:27:00,
2013-05-20 20:32:00,65.3,20.7,30.12,SE,144,4.9,8.3,18,0.00,,SKC,0.00,VWS V14.01,2013-05-21 03:32:00,
2013-05-20 20:37:00,66.2,20.1,30.12,SE,144,5.4,6.3,17,0.00,,SKC,0.00,VWS V14.01,2013-05-21 03:37:00,
2013-05-20 20:42:00,66.4,20.3,30.12,East,95,5.4,6.3,17,0.00,,SKC,0.00,VWS V14.01,2013-05-21 03:42:00,
2013-05-20 20:47:00,65.5,20.9,30.12,SE,127,6.3,6.3,18,0.00,,SKC,0.00,VWS V14.01,2013-05-21 03:47:00,
2013-05-20 20:52:00,64.0,23.3,30.12,SE,140,6.3,6.3,21,0.00,,SKC,0.00,VWS V14.01,2013-05-21 03:52:00,
2013-05-20 20:57:00,63.9,19.6,30.12,SE,139,7.6,7.6,18,0.00,,SKC,0.00,VWS V14.01,2013-05-21 03:57:00,
2013-05-20 21:03:00,64.8,20.3,30.12,SE,144,8.1,10.1,18,0.00,,SKC,0.00,VWS V14.01,2013-05-21 04:03:00,
2013-05-20 21:08:00,64.8,20.3,30.12,SE,140,4.9,7.6,18,0.00,,SKC,0.00,VWS V14.01,2013-05-21 04:08:00,
2013-05-20 21:13:00,64.6,20.1,30.12,SE,133,10.1,10.1,18,0.00,,SKC,0.00,VWS V14.01,2013-05-21 04:13:00,
2013-05-20 21:18:00,64.8,20.3,30.12,SE,130,6.3,6.3,18,0.00,,SKC,0.00,VWS V14.01,2013-05-21 04:18:00,
2013-05-20 21:23:00,64.8,20.3,30.12,East,100,5.4,5.4,18,0.00,,SKC,0.00,VWS V14.01,2013-05-21 04:23:00,
2013-05-20 21:28:00,64.6,20.1,30.12,SSE,150,3.6,4.9,18,0.00,,SKC,0.00,VWS V14.01,2013-05-21 04:28:00,
2013-05-20 21:33:00,64.2,19.9,30.12,South,177,0.0,0.0,18,0.00,,SKC,0.00,VWS V14.01,2013-05-21 04:33:00,
2013-05-20 21:38:00,63.9,19.6,30.12,SSE,148,4.9,5.4,18,0.00,,SKC,0.00,VWS V14.01,2013-05-21 04:38:00,
2013-05-20 21:43:00,63.5,19.3,30.12,SE,142,6.3,6.3,18,0.00,,SKC,0.00,VWS V14.01,2013-05-21 04:43:00,
2013-05-20 21:48:00,63.1,19.0,30.12,SE,145,2.7,4.0,18,0.00,,SKC,0.00,VWS V14.01,2013-05-21 04:48:00,
2013-05-20 21:53:00,63.0,18.8,30.12,SSE,166,2.7,2.7,18,0.00,,SKC,0.00,VWS V14.01,2013-05-21 04:53:00,
2013-05-20 21:58:00,62.4,22.0,30.12,SSE,165,0.0,0.0,21,0.00,,SKC,0.00,VWS V14.01,2013-05-21 04:58:00,
2013-05-20 22:03:00,61.5,21.2,30.12,SE,127,3.1,4.0,21,0.00,,SKC,0.00,VWS V14.01,2013-05-21 05:03:00,
2013-05-20 22:08:00,62.1,19.3,30.12,SSE,150,7.6,10.5,19,0.00,,SKC,0.00,VWS V14.01,2013-05-21 05:08:00,
2013-05-20 22:13:00,62.2,19.5,30.12,SSE,152,5.8,10.1,19,0.00,,SKC,0.00,VWS V14.01,2013-05-21 05:13:00,
2013-05-20 22:18:00,61.7,19.0,30.12,South,187,6.3,6.3,19,0.00,,SKC,0.00,VWS V14.01,2013-05-21 05:18:00,
2013-05-20 22:23:00,61.7,21.4,30.12,South,186,3.6,3.6,21,0.00,,SKC,0.00,VWS V14.01,2013-05-21 05:23:00,
2013-05-20 22:28:00,61.3,21.1,30.12,SSE,168,3.6,4.9,21,0.00,,SKC,0.00,VWS V14.01,2013-05-21 05:28:00,
2013-05-20 22:33:00,61.0,20.8,30.12,SSE,155,4.0,4.9,21,0.00,,SKC,0.00,VWS V14.01,2013-05-21 05:33:00,
2013-05-20 22:38:00,60.4,18.0,30.12,SSE,147,3.6,5.4,19,0.00,,SKC,0.00,VWS V14.01,2013-05-21 05:38:00,
2013-05-20 22:43:00,60.1,21.1,30.12,SSW,193,2.7,2.7,22,0.00,,SKC,0.00,VWS V14.01,2013-05-21 05:43:00,
2013-05-20 22:48:00,58.8,20.1,30.12,SSW,197,0.0,0.0,22,0.00,,SKC,0.00,VWS V14.01,2013-05-21 05:48:00,
2013-05-20 22:53:00,57.6,19.0,30.12,SSW,195,0.0,0.0,22,0.00,,SKC,0.00,VWS V14.01,2013-05-21 05:53:00,
2013-05-20 22:58:00,57.2,20.8,30.12,South,173,2.7,2.7,24,0.00,,SKC,0.00,VWS V14.01,2013-05-21 05:58:00,
2013-05-20 23:03:00,56.3,21.0,30.12,South,187,3.1,3.1,25,0.00,,SKC,0.00,VWS V14.01,2013-05-21 06:03:00,
2013-05-20 23:08:00,55.9,20.6,30.12,South,187,0.0,0.0,25,0.00,,SKC,0.00,VWS V14.01,2013-05-21 06:08:00,
2013-05-20 23:13:00,56.3,21.0,30.12,SE,145,0.0,0.0,25,0.00,,SKC,0.00,VWS V14.01,2013-05-21 06:13:00,
2013-05-20 23:18:00,56.3,21.0,30.12,SE,145,0.0,0.0,25,0.00,,SKC,0.00,VWS V14.01,2013-05-21 06:18:00,
2013-05-20 23:23:00,55.9,20.6,30.12,SE,145,0.0,0.0,25,0.00,,SKC,0.00,VWS V14.01,2013-05-21 06:23:00,
2013-05-20 23:28:00,55.4,20.2,30.12,SE,145,0.0,0.0,25,0.00,,SKC,0.00,VWS V14.01,2013-05-21 06:28:00,
2013-05-20 23:33:00,54.7,20.5,30.12,SE,145,0.0,0.0,26,0.00,,SKC,0.00,VWS V14.01,2013-05-21 06:33:00,
2013-05-20 23:38:00,54.3,20.2,30.12,SE,145,0.0,0.0,26,0.00,,SKC,0.00,VWS V14.01,2013-05-21 06:38:00,
2013-05-20 23:43:00,54.0,19.9,30.12,SE,145,0.0,0.0,26,0.00,,SKC,0.00,VWS V14.01,2013-05-21 06:43:00,
2013-05-20 23:48:00,53.8,19.7,30.12,South,173,0.0,0.0,26,0.00,,SKC,0.00,VWS V14.01,2013-05-21 06:48:00,
2013-05-20 23:53:00,54.5,19.4,30.12,SSW,193,6.7,6.7,25,0.00,,SKC,0.00,VWS V14.01,2013-05-21 06:53:00,
2013-05-20 23:58:00,55.4,20.2,30.12,SSE,166,3.1,3.1,25,0.00,,SKC,0.00,VWS V14.01,2013-05-21 06:58:00,